Time;durP1;ratioP1;P1;durP2;ratioP2;P2;SDS_P1;SDS_P2;PMS_P1;PMS_P2;Temp;Humidity;BMP_temperature;BMP_pressure;BME280_temperature;BME280_humidity;BME280_pressure;Samples;Min_cycle;Max_cycle;Signal;HPM_P1;HPM_P2
2022/09/11 00:00:00;;;;;;;5.45;3.75;;;;;21.00;101590.00;;;;5080154;28;20767;-77
2022/09/11 00:02:27;;;;;;;5.40;4.43;;;;;20.90;101590.00;;;;5075911;28;20201;-77
2022/09/11 00:04:55;;;;;;;4.20;3.80;;;;;20.90;101596.00;;;;5080308;28;20198;-77
2022/09/11 00:07:25;;;;;;;5.78;4.50;;;;;20.90;101600.00;;;;5081964;28;20213;-77
2022/09/11 00:09:52;;;;;;;7.85;4.80;;;;;20.90;101605.00;;;;5073712;28;20613;-77
2022/09/11 00:12:21;;;;;;;4.45;4.03;;;;;20.90;101602.00;;;;5072755;28;20195;-77
2022/09/11 00:14:48;;;;;;;6.53;3.55;;;;;20.80;101604.00;;;;5080911;28;20203;-77
2022/09/11 00:17:16;;;;;;;4.78;4.35;;;;;20.80;101607.00;;;;5079873;28;20205;-77
2022/09/11 00:19:43;;;;;;;4.28;3.65;;;;;20.80;101600.00;;;;5077605;28;20225;-78
2022/09/11 00:22:11;;;;;;;5.38;4.07;;;;;20.80;101604.00;;;;5070840;28;20562;-77
2022/09/11 00:24:40;;;;;;;5.03;4.10;;;;;20.80;101595.00;;;;5069266;28;20214;-78
2022/09/11 00:27:07;;;;;;;4.22;3.58;;;;;20.70;101595.00;;;;5081402;28;20203;-77
2022/09/11 00:29:34;;;;;;;6.60;5.07;;;;;20.70;101604.00;;;;5080161;28;20233;-77
2022/09/11 00:32:02;;;;;;;4.70;4.25;;;;;20.70;101597.00;;;;5089913;28;20222;-77
2022/09/11 00:34:29;;;;;;;5.25;4.75;;;;;20.70;101595.00;;;;5081520;28;20205;-77
2022/09/11 00:36:56;;;;;;;4.70;3.90;;;;;20.60;101597.00;;;;5086572;28;20574;-77
2022/09/11 00:39:25;;;;;;;5.18;4.00;;;;;20.60;101592.00;;;;5081329;28;20629;-77
2022/09/11 00:41:52;;;;;;;7.75;4.43;;;;;20.60;101592.00;;;;5069810;28;20545;-77
2022/09/11 00:44:59;;;;;;;4.88;4.05;;;;;20.50;101601.00;;;;5080384;28;20202;-77
2022/09/11 00:47:28;;;;;;;6.75;3.65;;;;;20.60;101601.00;;;;5076791;28;20195;-77
2022/09/11 00:50:02;;;;;;;4.82;4.07;;;;;20.50;101604.00;;;;5074478;28;20279;-77
2022/09/11 00:52:34;;;;;;;5.63;4.07;;;;;20.50;101593.00;;;;5074296;28;20202;-77
2022/09/11 00:55:08;;;;;;;4.70;4.22;;;;;20.40;101598.00;;;;5082400;28;20580;-77
2022/09/11 00:57:41;;;;;;;6.85;5.32;;;;;20.40;101606.00;;;;5069312;28;20206;-77
2022/09/11 01:00:11;;;;;;;4.47;3.90;;;;;20.50;101615.00;;;;5069289;28;20230;-77
2022/09/11 01:02:41;;;;;;;4.93;4.43;;;;;20.40;101620.00;;;;5069061;28;20618;-77
2022/09/11 01:05:09;;;;;;;5.90;4.72;;;;;20.40;101616.00;;;;5076082;28;20199;-77
2022/09/11 01:07:38;;;;;;;6.00;4.72;;;;;20.40;101613.00;;;;5085032;28;20206;-77
2022/09/11 01:10:11;;;;;;;5.85;5.25;;;;;20.30;101617.00;;;;5079772;28;20209;-77
2022/09/11 01:12:47;;;;;;;5.90;4.93;;;;;20.30;101620.00;;;;5083731;28;20202;-77
2022/09/11 01:15:21;;;;;;;6.20;5.60;;;;;20.30;101620.00;;;;5085357;28;20209;-77
2022/09/11 01:17:59;;;;;;;5.85;5.13;;;;;20.30;101622.00;;;;5068706;28;20202;-77
2022/09/11 01:20:36;;;;;;;6.03;5.43;;;;;20.30;101616.00;;;;5069653;28;20974;-77
2022/09/11 01:23:25;;;;;;;6.10;5.32;;;;;20.20;101617.00;;;;5083744;28;20202;-76
2022/09/11 01:26:17;;;;;;;6.22;5.53;;;;;20.10;101623.00;;;;5084137;28;20736;-76
2022/09/11 01:28:52;;;;;;;6.07;5.47;;;;;20.20;101621.00;;;;5067247;28;20345;-76
2022/09/11 01:31:26;;;;;;;7.13;5.97;;;;;20.20;101623.00;;;;5068779;28;20211;-77
2022/09/11 01:33:58;;;;;;;7.78;6.38;;;;;20.20;101617.00;;;;5080246;28;20595;-76
2022/09/11 01:36:33;;;;;;;7.40;6.57;;;;;20.20;101629.00;;;;5076301;28;20226;-77
2022/09/11 01:39:03;;;;;;;7.00;6.07;;;;;20.20;101635.00;;;;5085591;28;20254;-76
2022/09/11 01:41:34;;;;;;;7.95;5.93;;;;;20.10;101626.00;;;;5082242;28;20226;-76
2022/09/11 01:44:06;;;;;;;6.63;5.43;;;;;20.10;101624.00;;;;5068858;28;20667;-76
2022/09/11 01:46:39;;;;;;;8.05;6.35;;;;;20.10;101624.00;;;;5079106;28;20676;-77
2022/09/11 01:49:11;;;;;;;7.35;6.32;;;;;20.10;101633.00;;;;5086750;28;20205;-77
2022/09/11 01:51:40;;;;;;;9.40;5.57;;;;;20.10;101631.00;;;;5081660;28;20214;-77
2022/09/11 01:54:11;;;;;;;6.80;4.78;;;;;20.10;101628.00;;;;5069650;28;20191;-77
2022/09/11 01:56:43;;;;;;;5.25;4.53;;;;;20.10;101624.00;;;;5082953;28;20190;-76
2022/09/11 01:59:16;;;;;;;5.55;5.00;;;;;20.00;101632.00;;;;5074142;28;20249;-76
2022/09/11 02:01:50;;;;;;;5.72;5.13;;;;;20.00;101630.00;;;;5070282;28;20226;-77
2022/09/11 02:04:21;;;;;;;5.55;4.43;;;;;20.00;101626.00;;;;5067203;28;20237;-76
2022/09/11 02:06:52;;;;;;;4.70;4.22;;;;;20.00;101631.00;;;;5067195;28;20241;-76
2022/09/11 02:09:24;;;;;;;7.60;4.47;;;;;20.00;101629.00;;;;5085260;28;20206;-77
2022/09/11 02:11:55;;;;;;;6.05;4.88;;;;;19.90;101621.00;;;;5085299;28;20209;-76
2022/09/11 02:14:28;;;;;;;8.95;5.18;;;;;19.90;101627.00;;;;5077288;28;20190;-77
2022/09/11 02:17:05;;;;;;;5.35;4.63;;;;;19.90;101627.00;;;;5077348;28;20252;-76
2022/09/11 02:19:32;;;;;;;5.43;4.75;;;;;19.90;101631.00;;;;5068317;28;20194;-77
2022/09/11 02:22:00;;;;;;;4.45;4.05;;;;;19.90;101629.00;;;;5068720;28;20233;-77
2022/09/11 02:24:28;;;;;;;5.75;4.43;;;;;19.90;101634.00;;;;5068646;28;20202;-77
2022/09/11 02:26:58;;;;;;;5.32;4.40;;;;;19.90;101637.00;;;;5077031;28;20217;-77
2022/09/11 02:29:26;;;;;;;6.15;5.00;;;;;19.90;101637.00;;;;5086017;28;20299;-76
2022/09/11 02:31:55;;;;;;;5.10;4.38;;;;;19.80;101644.00;;;;5074208;28;20226;-77
2022/09/11 02:34:26;;;;;;;6.32;4.90;;;;;19.80;101646.00;;;;5068076;28;20195;-76
2022/09/11 02:37:07;;;;;;;5.85;4.65;;;;;19.70;101646.00;;;;5074400;28;20672;-77
2022/09/11 02:39:52;;;;;;;6.35;5.50;;;;;19.70;101650.00;;;;5068208;28;20190;-77
2022/09/11 02:42:30;;;;;;;5.60;4.57;;;;;19.70;101652.00;;;;5067398;28;20226;-77
2022/09/11 02:45:11;;;;;;;6.15;4.47;;;;;19.70;101651.00;;;;5068175;28;20736;-77
2022/09/11 02:47:45;;;;;;;5.60;4.00;;;;;19.70;101638.00;;;;5068159;28;20255;-77
2022/09/11 02:50:22;;;;;;;6.43;5.70;;;;;19.70;101651.00;;;;5067876;28;20190;-77
2022/09/11 02:52:57;;;;;;;4.45;4.03;;;;;19.70;101647.00;;;;5067716;28;20195;-77
2022/09/11 02:55:31;;;;;;;6.85;5.40;;;;;19.70;101645.00;;;;5067806;28;20198;-77
2022/09/11 02:58:02;;;;;;;7.35;4.78;;;;;19.70;101644.00;;;;5067627;28;20194;-78
2022/09/11 03:00:31;;;;;;;5.20;4.70;;;;;19.70;101651.00;;;;5074053;28;20202;-78
2022/09/11 03:02:59;;;;;;;5.63;4.88;;;;;19.70;101655.00;;;;5082545;28;20204;-77
2022/09/11 03:05:28;;;;;;;6.38;5.20;;;;;19.60;101653.00;;;;5078230;28;21013;-77
2022/09/11 03:07:55;;;;;;;6.55;4.90;;;;;19.60;101658.00;;;;5073393;28;20256;-78
2022/09/11 03:10:23;;;;;;;5.65;4.78;;;;;19.60;101657.00;;;;5071661;28;20542;-77
2022/09/11 03:12:50;;;;;;;6.85;5.40;;;;;19.60;101663.00;;;;5078944;28;20730;-77
2022/09/11 03:15:18;;;;;;;5.68;4.38;;;;;19.60;101656.00;;;;5081528;28;20194;-77
2022/09/11 03:17:47;;;;;;;5.13;4.57;;;;;19.60;101658.00;;;;5083946;28;20205;-77
2022/09/11 03:20:14;;;;;;;6.38;5.00;;;;;19.60;101652.00;;;;5083547;28;20544;-77
2022/09/11 03:22:42;;;;;;;6.00;4.43;;;;;19.60;101663.00;;;;5078666;28;20697;-77
2022/09/11 03:25:10;;;;;;;8.98;4.45;;;;;19.50;101650.00;;;;5070890;28;20195;-77
2022/09/11 03:27:38;;;;;;;6.25;4.88;;;;;19.50;101654.00;;;;5072672;28;20210;-77
2022/09/11 03:30:07;;;;;;;6.18;4.70;;;;;19.50;101663.00;;;;5089352;28;20603;-77
2022/09/11 03:32:34;;;;;;;6.20;4.72;;;;;19.50;101659.00;;;;5087183;28;20240;-77
2022/09/11 03:35:02;;;;;;;7.55;5.30;;;;;19.50;101660.00;;;;5091307;28;20198;-77
2022/09/11 03:37:30;;;;;;;7.72;4.53;;;;;19.50;101656.00;;;;5084951;28;20198;-77
2022/09/11 03:39:57;;;;;;;6.93;5.20;;;;;19.50;101660.00;;;;5091907;28;20198;-77
2022/09/11 03:42:24;;;;;;;5.20;4.68;;;;;19.40;101651.00;;;;5082864;28;20225;-77
2022/09/11 03:44:51;;;;;;;5.05;4.35;;;;;19.40;101657.00;;;;5071198;28;20206;-77
2022/09/11 03:47:21;;;;;;;5.25;4.47;;;;;19.40;101659.00;;;;5071131;28;20548;-77
2022/09/11 03:49:48;;;;;;;6.45;5.28;;;;;19.40;101665.00;;;;5070718;28;20580;-77
2022/09/11 03:52:16;;;;;;;6.22;4.85;;;;;19.40;101671.00;;;;5070562;28;20225;-77
2022/09/11 03:54:44;;;;;;;6.13;4.65;;;;;19.40;101661.00;;;;5071033;28;20214;-77
2022/09/11 03:57:12;;;;;;;5.75;4.57;;;;;19.40;101656.00;;;;5074227;28;20277;-77
2022/09/11 03:59:39;;;;;;;6.30;5.00;;;;;19.40;101657.00;;;;5069987;28;20294;-77
2022/09/11 04:02:06;;;;;;;6.35;5.22;;;;;19.40;101661.00;;;;5082014;28;20222;-77
2022/09/11 04:04:35;;;;;;;5.65;4.80;;;;;19.40;101662.00;;;;5074984;28;20198;-77
2022/09/11 04:07:02;;;;;;;5.47;4.53;;;;;19.40;101667.00;;;;5090149;28;20664;-77
2022/09/11 04:09:31;;;;;;;5.32;4.68;;;;;19.30;101672.00;;;;5090282;28;20202;-77
2022/09/11 04:11:58;;;;;;;5.55;4.57;;;;;19.30;101665.00;;;;5082878;28;20199;-78
2022/09/11 04:14:26;;;;;;;6.40;4.78;;;;;19.30;101663.00;;;;5069910;28;20197;-78
2022/09/11 04:16:53;;;;;;;5.35;4.40;;;;;19.30;101664.00;;;;5074362;28;20522;-77
2022/09/11 04:19:22;;;;;;;6.38;4.78;;;;;19.30;101667.00;;;;5081670;28;20190;-78
2022/09/11 04:21:49;;;;;;;6.68;4.93;;;;;19.30;101665.00;;;;5084254;28;20249;-77
2022/09/11 04:24:17;;;;;;;4.60;3.70;;;;;19.30;101661.00;;;;5080169;28;20198;-78
2022/09/11 04:26:46;;;;;;;6.10;5.22;;;;;19.30;101663.00;;;;5069943;28;20202;-77
2022/09/11 04:29:16;;;;;;;5.85;4.88;;;;;19.30;101665.00;;;;5089440;28;20238;-77
2022/09/11 04:31:44;;;;;;;5.15;4.65;;;;;19.30;101670.00;;;;5075282;28;20219;-77
2022/09/11 04:34:11;;;;;;;7.80;4.75;;;;;19.30;101670.00;;;;5069738;28;20202;-77
2022/09/11 04:36:38;;;;;;;6.18;4.68;;;;;19.30;101671.00;;;;5074757;28;20203;-78
2022/09/11 04:39:06;;;;;;;5.20;4.47;;;;;19.30;101673.00;;;;5084720;28;20194;-77
2022/09/11 04:41:33;;;;;;;5.75;4.82;;;;;19.30;101674.00;;;;5074035;28;20227;-77
2022/09/11 04:44:02;;;;;;;6.50;5.03;;;;;19.20;101675.00;;;;5080167;28;20198;-77
2022/09/11 04:46:29;;;;;;;5.90;5.10;;;;;19.30;101676.00;;;;5071557;28;20207;-78
2022/09/11 04:48:59;;;;;;;9.07;5.93;;;;;19.30;101682.00;;;;5069032;28;20684;-77
2022/09/11 04:51:29;;;;;;;7.13;5.57;;;;;19.20;101677.00;;;;5070619;28;20275;-78
2022/09/11 04:53:57;;;;;;;8.30;6.00;;;;;19.30;101671.00;;;;5070105;28;20222;-77
2022/09/11 04:56:27;;;;;;;8.32;6.28;;;;;19.30;101668.00;;;;5072709;28;20199;-77
2022/09/11 04:58:56;;;;;;;10.88;5.72;;;;;19.30;101678.00;;;;5089546;28;20200;-78
2022/09/11 05:01:29;;;;;;;9.38;5.80;;;;;19.20;101682.00;;;;5081373;28;20221;-77
2022/09/11 05:03:59;;;;;;;7.82;6.13;;;;;19.30;101677.00;;;;5085779;28;20198;-78
2022/09/11 05:06:26;;;;;;;8.27;6.90;;;;;19.30;101684.00;;;;5086090;28;20677;-78
2022/09/11 05:08:53;;;;;;;9.07;7.70;;;;;19.30;101686.00;;;;5087279;28;20205;-78
2022/09/11 05:11:21;;;;;;;10.20;6.55;;;;;19.30;101689.00;;;;5088655;28;20198;-77
2022/09/11 05:13:48;;;;;;;8.38;6.45;;;;;19.30;101696.00;;;;5069280;28;20699;-77
2022/09/11 05:16:17;;;;;;;9.05;5.85;;;;;19.30;101689.00;;;;5069072;28;20568;-78
2022/09/11 05:18:51;;;;;;;9.10;7.10;;;;;19.30;101697.00;;;;5080525;28;20665;-78
2022/09/11 05:21:19;;;;;;;8.25;6.38;;;;;19.40;101695.00;;;;5083430;28;20245;-77
2022/09/11 05:23:48;;;;;;;9.73;7.22;;;;;19.40;101700.00;;;;5068184;28;20574;-77
2022/09/11 05:26:17;;;;;;;8.65;6.80;;;;;19.40;101697.00;;;;5081874;28;20199;-77
2022/09/11 05:28:44;;;;;;;8.25;6.80;;;;;19.40;101705.00;;;;5088794;28;20233;-77
2022/09/11 05:31:14;;;;;;;7.53;6.35;;;;;19.40;101710.00;;;;5088239;28;20210;-78
2022/09/11 05:33:42;;;;;;;10.75;5.80;;;;;19.40;101717.00;;;;5087232;28;20217;-77
2022/09/11 05:36:12;;;;;;;12.75;7.47;;;;;19.40;101717.00;;;;5071796;28;20195;-78
2022/09/11 05:38:39;;;;;;;13.60;6.72;;;;;19.40;101719.00;;;;5081683;28;20198;-78
2022/09/11 05:41:09;;;;;;;12.90;7.57;;;;;19.40;101724.00;;;;5067982;28;20223;-78
2022/09/11 05:43:37;;;;;;;16.30;7.30;;;;;19.50;101731.00;;;;5087229;28;20282;-77
2022/09/11 05:46:05;;;;;;;8.18;6.30;;;;;19.50;101727.00;;;;5073496;28;20194;-77
2022/09/11 05:48:35;;;;;;;10.00;6.30;;;;;19.50;101738.00;;;;5067509;28;20207;-78
2022/09/11 05:51:06;;;;;;;10.40;6.03;;;;;19.50;101736.00;;;;5075415;28;20221;-78
2022/09/11 05:53:35;;;;;;;8.55;5.97;;;;;19.60;101741.00;;;;5077917;28;20306;-78
2022/09/11 05:56:07;;;;;;;9.63;6.85;;;;;19.60;101744.00;;;;5074485;28;20195;-77
2022/09/11 05:58:35;;;;;;;8.07;5.43;;;;;19.60;101738.00;;;;5072934;28;20199;-77
2022/09/11 06:01:07;;;;;;;7.22;6.28;;;;;19.60;101744.00;;;;5069398;28;20203;-77
2022/09/11 06:03:35;;;;;;;10.05;6.63;;;;;19.70;101746.00;;;;5072187;28;20312;-78
2022/09/11 06:06:03;;;;;;;8.43;6.22;;;;;19.70;101752.00;;;;5087087;28;20198;-77
2022/09/11 06:08:32;;;;;;;6.47;5.78;;;;;19.80;101747.00;;;;5087804;28;20198;-77
2022/09/11 06:11:02;;;;;;;8.15;5.95;;;;;19.80;101751.00;;;;5084132;28;20217;-77
2022/09/11 06:13:31;;;;;;;8.57;6.45;;;;;19.80;101758.00;;;;5068714;28;20260;-77
2022/09/11 06:15:58;;;;;;;8.88;5.72;;;;;19.90;101758.00;;;;5080326;28;20191;-78
2022/09/11 06:18:26;;;;;;;9.13;6.28;;;;;19.90;101764.00;;;;5069042;28;20198;-77
2022/09/11 06:20:57;;;;;;;7.32;5.43;;;;;19.90;101759.00;;;;5074708;28;20433;-77
2022/09/11 06:23:27;;;;;;;6.90;5.25;;;;;20.00;101754.00;;;;5072344;28;20222;-78
2022/09/11 06:26:01;;;;;;;6.38;5.20;;;;;20.10;101764.00;;;;5068293;28;20664;-79
2022/09/11 06:28:30;;;;;;;7.63;5.78;;;;;20.10;101758.00;;;;5079905;28;20336;-79
2022/09/11 06:30:57;;;;;;;5.20;4.53;;;;;20.10;101761.00;;;;5085569;28;20233;-79
2022/09/11 06:33:25;;;;;;;5.40;4.90;;;;;20.20;101757.00;;;;5071792;28;20237;-79
2022/09/11 06:35:58;;;;;;;5.68;5.07;;;;;20.20;101764.00;;;;5075310;28;20202;-78
2022/09/11 06:38:26;;;;;;;10.43;4.68;;;;;20.30;101763.00;;;;5074011;28;20205;-78
2022/09/11 06:40:53;;;;;;;5.30;4.85;;;;;20.30;101763.00;;;;5078858;28;20194;-79
2022/09/11 06:43:21;;;;;;;5.32;4.82;;;;;20.40;101765.00;;;;5074103;28;20233;-78
2022/09/11 06:45:50;;;;;;;4.60;4.20;;;;;20.40;101768.00;;;;5072217;28;20190;-79
2022/09/11 06:48:18;;;;;;;7.75;4.55;;;;;20.50;101774.00;;;;5073057;28;20205;-79
2022/09/11 06:50:46;;;;;;;3.92;3.63;;;;;20.50;101771.00;;;;5076460;28;20222;-78
2022/09/11 06:53:14;;;;;;;5.05;4.55;;;;;20.60;101777.00;;;;5080728;28;20570;-78
2022/09/11 06:55:42;;;;;;;4.57;4.18;;;;;20.60;101777.00;;;;5074192;28;20222;-77
2022/09/11 06:58:09;;;;;;;5.90;4.60;;;;;20.70;101770.00;;;;5074072;28;20214;-78
2022/09/11 07:00:37;;;;;;;7.15;4.15;;;;;20.80;101776.00;;;;5074408;28;20253;-77
2022/09/11 07:03:06;;;;;;;10.02;5.22;;;;;20.80;101778.00;;;;5079651;28;20229;-77
2022/09/11 07:05:33;;;;;;;7.00;4.65;;;;;20.90;101777.00;;;;5081543;28;20191;-78
2022/09/11 07:08:01;;;;;;;5.72;5.13;;;;;21.00;101782.00;;;;5067161;28;20214;-80
2022/09/11 07:10:28;;;;;;;5.53;4.82;;;;;21.00;101780.00;;;;5068016;28;20234;-80
2022/09/11 07:12:56;;;;;;;5.22;4.72;;;;;21.10;101766.00;;;;5078472;28;20564;-80
2022/09/11 07:15:24;;;;;;;5.55;5.05;;;;;21.20;101776.00;;;;5071901;28;20195;-80
2022/09/11 07:17:51;;;;;;;5.93;5.25;;;;;21.30;101778.00;;;;5075805;28;20677;-79
2022/09/11 07:20:21;;;;;;;5.68;5.18;;;;;21.30;101783.00;;;;5075538;28;20206;-80
2022/09/11 07:22:48;;;;;;;6.28;5.03;;;;;21.40;101790.00;;;;5076912;28;20258;-80
2022/09/11 07:25:16;;;;;;;6.47;5.88;;;;;21.50;101790.00;;;;5076880;28;20198;-80
2022/09/11 07:27:44;;;;;;;5.80;5.15;;;;;21.50;101787.00;;;;5068242;28;20291;-80
2022/09/11 07:30:12;;;;;;;6.07;5.35;;;;;21.60;101778.00;;;;5067306;28;20735;-80
2022/09/11 07:32:40;;;;;;;6.75;5.60;;;;;21.70;101787.00;;;;5072572;28;20711;-80
2022/09/11 07:35:07;;;;;;;6.30;5.28;;;;;21.80;101790.00;;;;5082188;28;20207;-80
2022/09/11 07:37:36;;;;;;;5.95;5.03;;;;;21.80;101797.00;;;;5080558;28;20202;-80
2022/09/11 07:40:04;;;;;;;8.93;5.28;;;;;21.90;101797.00;;;;5066477;28;20207;-80
2022/09/11 07:42:32;;;;;;;5.45;4.93;;;;;22.00;101800.00;;;;5078725;28;20233;-80
2022/09/11 07:45:00;;;;;;;7.20;5.13;;;;;22.10;101792.00;;;;5071701;28;20238;-80
2022/09/11 07:47:27;;;;;;;6.95;4.95;;;;;22.20;101801.00;;;;5076144;28;20194;-80
2022/09/11 07:49:54;;;;;;;6.30;5.35;;;;;22.20;101797.00;;;;5075556;28;20229;-80
2022/09/11 07:52:21;;;;;;;7.05;5.75;;;;;22.30;101799.00;;;;5082722;28;20190;-81
2022/09/11 07:54:51;;;;;;;7.15;5.80;;;;;22.40;101802.00;;;;5069695;28;20206;-78
2022/09/11 07:57:18;;;;;;;5.80;5.20;;;;;22.50;101811.00;;;;5069640;28;20205;-81
2022/09/11 07:59:46;;;;;;;7.07;5.85;;;;;22.60;101809.00;;;;5074477;28;20252;-81
2022/09/11 08:02:13;;;;;;;6.55;5.93;;;;;22.60;101813.00;;;;5086373;28;20275;-80
2022/09/11 08:04:40;;;;;;;7.00;5.80;;;;;22.70;101813.00;;;;5079333;28;20195;-80
2022/09/11 08:07:08;;;;;;;6.20;5.53;;;;;22.80;101816.00;;;;5091454;28;20206;-80
2022/09/11 08:09:35;;;;;;;6.75;6.13;;;;;22.90;101810.00;;;;5087115;28;20202;-80
2022/09/11 08:12:07;;;;;;;7.72;6.28;;;;;22.90;101809.00;;;;5089700;28;20205;-80
2022/09/11 08:14:35;;;;;;;7.82;7.05;;;;;23.10;101815.00;;;;5089073;28;20194;-79
2022/09/11 08:17:03;;;;;;;8.10;6.70;;;;;23.20;101811.00;;;;5089200;28;20202;-80
2022/09/11 08:19:30;;;;;;;6.22;5.55;;;;;23.30;101810.00;;;;5089860;28;20198;-79
2022/09/11 08:21:57;;;;;;;6.65;6.00;;;;;23.30;101825.00;;;;5071867;28;20199;-78
2022/09/11 08:24:26;;;;;;;7.55;6.75;;;;;23.40;101822.00;;;;5070181;28;20199;-79
2022/09/11 08:26:55;;;;;;;7.95;6.30;;;;;23.50;101831.00;;;;5086100;28;20327;-79
2022/09/11 08:29:24;;;;;;;7.15;6.43;;;;;23.60;101825.00;;;;5085036;28;20765;-82
2022/09/11 08:31:51;;;;;;;6.80;6.13;;;;;23.70;101832.00;;;;5083522;28;20250;-82
2022/09/11 08:34:21;;;;;;;6.07;5.47;;;;;23.80;101838.00;;;;5076808;28;20199;-82
2022/09/11 08:36:50;;;;;;;7.78;6.07;;;;;23.80;101838.00;;;;5075237;28;20203;-83
2022/09/11 08:39:17;;;;;;;6.75;5.93;;;;;23.90;101836.00;;;;5084048;28;20214;-84
2022/09/11 08:41:48;;;;;;;7.70;5.95;;;;;23.90;101837.00;;;;5078723;28;20206;-85
2022/09/11 08:44:22;;;;;;;6.45;5.78;;;;;23.90;101832.00;;;;5073691;28;20766;-84
2022/09/11 08:46:55;;;;;;;6.30;5.68;;;;;24.00;101842.00;;;;5089586;28;20198;-85
2022/09/11 08:49:25;;;;;;;6.93;6.25;;;;;24.10;101845.00;;;;5088981;28;20198;-87
2022/09/11 08:51:56;;;;;;;6.60;5.90;;;;;24.20;101832.00;;;;5068824;28;20604;-85
2022/09/11 08:54:27;;;;;;;9.18;6.80;;;;;24.40;101831.00;;;;5069671;28;20202;-85
2022/09/11 08:57:06;;;;;;;7.57;6.45;;;;;24.50;101839.00;;;;5069441;28;20199;-85
2022/09/11 08:59:45;;;;;;;6.07;5.47;;;;;24.60;101843.00;;;;5073983;28;20210;-85
2022/09/11 09:02:27;;;;;;;7.20;5.32;;;;;24.70;101838.00;;;;5070972;28;20194;-84
2022/09/11 09:05:17;;;;;;;5.80;4.90;;;;;24.80;101844.00;;;;5068987;28;20206;-83
2022/09/11 09:07:56;;;;;;;5.78;5.20;;;;;24.90;101832.00;;;;5066582;28;20680;-84
2022/09/11 09:10:34;;;;;;;5.32;4.82;;;;;25.00;101830.00;;;;5073917;28;20200;-85
2022/09/11 09:13:10;;;;;;;7.55;5.85;;;;;25.00;101835.00;;;;5089054;28;20537;-85
2022/09/11 09:15:47;;;;;;;5.90;5.30;;;;;25.00;101838.00;;;;5086965;28;20201;-84
2022/09/11 09:18:27;;;;;;;5.60;4.63;;;;;25.00;101849.00;;;;5089435;28;20251;-84
2022/09/11 09:21:02;;;;;;;4.95;4.55;;;;;25.10;101851.00;;;;5089525;28;20190;-85
2022/09/11 09:23:35;;;;;;;4.90;4.40;;;;;25.10;101847.00;;;;5089804;28;20272;-84
2022/09/11 09:26:02;;;;;;;5.03;3.97;;;;;25.10;101842.00;;;;5089263;28;20205;-84
2022/09/11 09:28:39;;;;;;;4.50;4.10;;;;;25.10;101851.00;;;;5089411;28;20222;-84
2022/09/11 09:31:10;;;;;;;4.30;3.80;;;;;25.10;101854.00;;;;5089961;28;20210;-84
2022/09/11 09:33:48;;;;;;;4.40;3.58;;;;;25.10;101858.00;;;;5078307;28;20198;-84
2022/09/11 09:36:19;;;;;;;5.30;3.55;;;;;25.20;101858.00;;;;5081445;28;20187;-84
2022/09/11 09:38:47;;;;;;;4.90;3.53;;;;;25.20;101860.00;;;;5069194;28;20226;-84
2022/09/11 09:41:42;;;;;;;4.78;3.63;;;;;25.10;101862.00;;;;5069048;28;20203;-84
2022/09/11 09:44:22;;;;;;;5.00;3.63;;;;;25.10;101854.00;;;;5069413;28;20934;-83
2022/09/11 09:46:52;;;;;;;5.18;3.83;;;;;25.20;101856.00;;;;5085569;28;20627;-83
2022/09/11 09:49:25;;;;;;;4.97;4.03;;;;;25.20;101853.00;;;;5069086;28;20195;-84
2022/09/11 09:51:56;;;;;;;6.65;4.75;;;;;25.40;101848.00;;;;5084333;28;20225;-85
2022/09/11 09:54:28;;;;;;;4.28;3.88;;;;;25.50;101848.00;;;;5088896;28;20212;-86
2022/09/11 09:57:01;;;;;;;4.50;4.10;;;;;25.60;101848.00;;;;5088989;28;20186;-85
2022/09/11 09:59:34;;;;;;;4.50;3.45;;;;;25.60;101847.00;;;;5089323;28;20194;-85
2022/09/11 10:02:02;;;;;;;3.53;3.20;;;;;25.70;101843.00;;;;5085288;28;20194;-85
2022/09/11 10:04:31;;;;;;;4.57;2.97;;;;;25.70;101847.00;;;;5088488;28;20240;-85
2022/09/11 10:07:10;;;;;;;3.10;2.85;;;;;25.60;101845.00;;;;5088274;28;20206;-84
2022/09/11 10:09:45;;;;;;;4.55;2.85;;;;;25.80;101842.00;;;;5088697;28;20194;-85
2022/09/11 10:12:18;;;;;;;3.03;2.72;;;;;25.80;101848.00;;;;5088034;28;20201;-86
2022/09/11 10:14:53;;;;;;;4.78;3.33;;;;;25.90;101843.00;;;;5087508;28;20233;-87
2022/09/11 10:17:22;;;;;;;3.60;3.30;;;;;26.10;101847.00;;;;5087647;28;20213;-85
2022/09/11 10:19:54;;;;;;;3.83;3.28;;;;;26.10;101854.00;;;;5088467;28;20198;-86
2022/09/11 10:22:24;;;;;;;3.92;3.35;;;;;26.20;101846.00;;;;5089004;28;20217;-86
2022/09/11 10:25:09;;;;;;;3.58;2.95;;;;;26.20;101850.00;;;;5088063;28;20233;-86
2022/09/11 10:27:45;;;;;;;3.63;2.83;;;;;26.40;101858.00;;;;5088399;28;20733;-85
2022/09/11 10:30:35;;;;;;;4.95;2.83;;;;;26.50;101858.00;;;;5088126;28;20226;-85
2022/09/11 10:33:18;;;;;;;2.63;2.42;;;;;26.80;101859.00;;;;5071626;28;20232;-86
2022/09/11 10:35:54;;;;;;;2.63;2.42;;;;;26.90;101849.00;;;;5087464;28;20556;-84
2022/09/11 10:38:28;;;;;;;3.25;2.47;;;;;27.00;101856.00;;;;5085578;28;20248;-86
2022/09/11 10:41:02;;;;;;;2.33;2.13;;;;;27.10;101851.00;;;;5067744;28;20193;-88
2022/09/11 10:43:35;;;;;;;2.10;2.00;;;;;27.10;101848.00;;;;5087626;28;20711;-85
2022/09/11 10:46:04;;;;;;;2.63;2.10;;;;;27.10;101851.00;;;;5084045;28;20203;-86
2022/09/11 10:48:35;;;;;;;2.08;1.83;;;;;27.20;101849.00;;;;5067841;28;20199;-87
2022/09/11 10:51:11;;;;;;;2.55;2.17;;;;;27.10;101846.00;;;;5066938;28;20194;-85
2022/09/11 10:53:47;;;;;;;3.80;1.90;;;;;27.10;101851.00;;;;5067575;28;20580;-85
2022/09/11 10:56:16;;;;;;;2.22;1.95;;;;;27.10;101849.00;;;;5068499;28;20568;-84
2022/09/11 10:58:47;;;;;;;2.33;1.95;;;;;27.10;101845.00;;;;5074136;28;20255;-85
2022/09/11 11:01:15;;;;;;;2.10;1.88;;;;;27.10;101840.00;;;;5079206;28;20194;-84
2022/09/11 11:03:42;;;;;;;2.55;2.20;;;;;27.10;101852.00;;;;5067478;28;20233;-86
2022/09/11 11:06:31;;;;;;;3.40;2.80;;;;;27.00;101849.00;;;;5068858;28;20195;-88
2022/09/11 11:09:36;;;;;;;4.45;2.10;;;;;26.90;101852.00;;;;5068405;28;20207;-85
2022/09/11 11:12:20;;;;;;;2.40;2.20;;;;;27.00;101848.00;;;;5068387;28;20584;-85
2022/09/11 11:15:05;;;;;;;3.65;1.90;;;;;27.10;101850.00;;;;5067638;28;20218;-85
2022/09/11 11:17:40;;;;;;;2.53;2.05;;;;;27.20;101850.00;;;;5067669;28;20215;-86
2022/09/11 11:20:20;;;;;;;2.65;1.77;;;;;27.20;101851.00;;;;5068446;28;20198;-86
2022/09/11 11:23:14;;;;;;;4.03;2.60;;;;;27.30;101850.00;;;;5068671;28;20237;-85
2022/09/11 11:25:52;;;;;;;3.97;1.60;;;;;27.30;101844.00;;;;5071279;28;20195;-84
2022/09/11 11:28:30;;;;;;;2.20;1.77;;;;;27.40;101850.00;;;;5072155;28;20238;-85
2022/09/11 11:31:14;;;;;;;3.55;2.08;;;;;27.40;101844.00;;;;5071706;28;20692;-84
2022/09/11 11:34:08;;;;;;;2.47;2.00;;;;;27.50;101852.00;;;;5085212;28;20208;-85
2022/09/11 11:36:40;;;;;;;3.15;1.95;;;;;27.60;101855.00;;;;5086000;28;20657;-85
2022/09/11 11:39:19;;;;;;;3.38;2.30;;;;;27.70;101851.00;;;;5083250;28;20202;-85
2022/09/11 11:41:53;;;;;;;4.03;2.17;;;;;27.80;101857.00;;;;5070657;28;20248;-85
2022/09/11 11:44:31;;;;;;;2.40;2.00;;;;;27.90;101849.00;;;;5070248;28;20318;-88
2022/09/11 11:47:03;;;;;;;4.28;1.80;;;;;28.00;101847.00;;;;5070855;28;20199;-84
2022/09/11 11:49:43;;;;;;;2.72;2.17;;;;;28.00;101844.00;;;;5082013;28;20209;-85
2022/09/11 11:52:23;;;;;;;2.00;1.73;;;;;28.10;101843.00;;;;5072509;28;20206;-85
2022/09/11 11:54:57;;;;;;;3.85;1.60;;;;;28.30;101843.00;;;;5079911;28;20220;-84
2022/09/11 11:57:30;;;;;;;2.38;1.77;;;;;28.30;101839.00;;;;5076824;28;20657;-81
2022/09/11 12:00:03;;;;;;;1.85;1.55;;;;;28.40;101832.00;;;;5088776;28;20190;-84
2022/09/11 12:02:38;;;;;;;4.35;1.83;;;;;28.40;101830.00;;;;5082775;28;20874;-82
2022/09/11 12:05:11;;;;;;;3.50;1.80;;;;;28.50;101831.00;;;;5070185;28;20594;-82
2022/09/11 12:07:41;;;;;;;1.88;1.40;;;;;28.60;101821.00;;;;5078061;28;20186;-83
2022/09/11 12:10:22;;;;;;;1.67;1.58;;;;;28.60;101829.00;;;;5085960;28;20688;-84
2022/09/11 12:12:53;;;;;;;2.17;1.98;;;;;28.80;101825.00;;;;5082316;28;20199;-83
2022/09/11 12:15:22;;;;;;;1.60;1.50;;;;;28.90;101829.00;;;;5070344;28;20203;-83
2022/09/11 12:18:00;;;;;;;2.15;1.88;;;;;28.80;101825.00;;;;5070477;28;20485;-83
2022/09/11 12:20:39;;;;;;;3.63;1.85;;;;;28.90;101830.00;;;;5073022;28;20202;-83
2022/09/11 12:23:28;;;;;;;2.00;1.80;;;;;29.00;101833.00;;;;5078413;28;20975;-83
2022/09/11 12:26:17;;;;;;;1.83;1.73;;;;;28.90;101822.00;;;;5089654;28;20209;-83
2022/09/11 12:28:46;;;;;;;1.98;1.60;;;;;29.00;101830.00;;;;5089851;28;20215;-84